Time;durP1;ratioP1;P1;durP2;ratioP2;P2;SDS_P1;SDS_P2;PMS_P1;PMS_P2;Temp;Humidity;BMP_temperature;BMP_pressure;BME280_temperature;BME280_humidity;BME280_pressure;Samples;Min_cycle;Max_cycle;Signal;HPM_P1;HPM_P2
2022/10/15 00:00:41;;;;;;;43.80;30.40;;;13.50;99.90;;;;;;5017563;28;20044;-74
2022/10/15 00:03:08;;;;;;;42.92;29.92;;;13.50;99.90;;;;;;5035192;28;20041;-74
2022/10/15 00:05:38;;;;;;;41.05;29.27;;;13.50;99.90;;;;;;5052999;28;20048;-73
2022/10/15 00:08:07;;;;;;;43.40;27.50;;;13.50;99.90;;;;;;5035221;28;20041;-74
2022/10/15 00:10:35;;;;;;;44.60;29.65;;;13.30;99.90;;;;;;5037585;28;20198;-74
2022/10/15 00:13:02;;;;;;;50.08;29.92;;;13.50;99.90;;;;;;5035598;28;20052;-74
2022/10/15 00:15:36;;;;;;;47.30;29.75;;;13.50;99.90;;;;;;5041295;28;20040;-74
2022/10/15 00:18:03;;;;;;;55.13;33.45;;;13.50;99.90;;;;;;5038830;28;20029;-74
2022/10/15 00:20:30;;;;;;;52.97;30.50;;;13.50;99.90;;;;;;5030863;28;20037;-74
2022/10/15 00:22:57;;;;;;;49.13;29.55;;;13.40;99.90;;;;;;5032782;28;20176;-74
2022/10/15 00:25:24;;;;;;;47.63;30.38;;;13.50;99.90;;;;;;5032232;28;20045;-74
2022/10/15 00:27:50;;;;;;;50.13;29.15;;;13.60;99.90;;;;;;5013652;28;20125;-73
2022/10/15 00:30:17;;;;;;;46.17;28.08;;;13.50;99.90;;;;;;5035019;28;20044;-74
2022/10/15 00:32:44;;;;;;;51.35;29.85;;;13.40;99.90;;;;;;5036044;28;20048;-74
2022/10/15 00:35:10;;;;;;;48.45;28.15;;;13.40;99.90;;;;;;5018861;28;20139;-72
2022/10/15 00:37:37;;;;;;;43.42;28.77;;;13.40;99.90;;;;;;5038482;28;20072;-72
2022/10/15 00:40:05;;;;;;;57.22;31.77;;;13.30;99.90;;;;;;5033520;28;20457;-75
2022/10/15 00:42:31;;;;;;;58.00;31.63;;;13.30;99.90;;;;;;5035658;28;20070;-76
2022/10/15 00:45:01;;;;;;;52.30;30.73;;;13.40;99.90;;;;;;5031520;28;20045;-75
2022/10/15 00:47:37;;;;;;;54.08;30.67;;;13.40;99.90;;;;;;5032505;28;20037;-76
2022/10/15 00:50:11;;;;;;;63.55;33.10;;;13.40;99.90;;;;;;5032677;28;20044;-73
2022/10/15 00:53:13;;;;;;;61.92;33.70;;;13.30;99.90;;;;;;5038283;28;20106;-73
2022/10/15 00:55:42;;;;;;;60.55;31.88;;;13.20;99.90;;;;;;4960293;28;20046;-73
2022/10/15 00:58:14;;;;;;;62.45;32.58;;;13.20;99.90;;;;;;5037058;28;20135;-73
2022/10/15 01:00:41;;;;;;;61.08;32.08;;;13.10;99.90;;;;;;5053920;28;20068;-73
2022/10/15 01:03:08;;;;;;;68.18;33.33;;;13.10;99.90;;;;;;5034486;28;20036;-73
2022/10/15 01:05:37;;;;;;;70.88;34.17;;;13.10;99.90;;;;;;5037841;28;20506;-73
2022/10/15 01:08:07;;;;;;;80.00;34.67;;;13.10;99.90;;;;;;5033625;28;20547;-73
2022/10/15 01:10:52;;;;;;;74.07;36.80;;;13.10;99.90;;;;;;5038126;28;20045;-73
2022/10/15 01:13:36;;;;;;;70.93;34.72;;;13.10;99.90;;;;;;5033931;28;20110;-73
2022/10/15 01:16:26;;;;;;;57.72;31.25;;;13.00;99.90;;;;;;5027980;28;20554;-73
2022/10/15 01:19:00;;;;;;;60.60;30.83;;;12.90;99.90;;;;;;5060894;28;20056;-72
2022/10/15 01:21:32;;;;;;;67.03;30.55;;;12.80;99.90;;;;;;5035101;28;20048;-73
2022/10/15 01:24:21;;;;;;;69.10;30.75;;;12.80;99.90;;;;;;5032315;28;20490;-73
2022/10/15 01:27:02;;;;;;;67.18;29.92;;;12.80;99.90;;;;;;5035272;28;20049;-72
2022/10/15 01:29:50;;;;;;;64.38;31.15;;;12.90;99.90;;;;;;5039158;28;20522;-73
2022/10/15 01:32:26;;;;;;;61.03;29.75;;;13.00;99.90;;;;;;5029895;28;20114;-73
2022/10/15 01:35:08;;;;;;;59.67;29.92;;;13.00;99.90;;;;;;5032126;28;20044;-73
2022/10/15 01:37:45;;;;;;;56.58;28.20;;;13.00;99.90;;;;;;5036435;28;20048;-73
2022/10/15 01:40:18;;;;;;;61.33;28.25;;;12.90;99.90;;;;;;5036910;28;20045;-73
2022/10/15 01:42:53;;;;;;;58.53;29.10;;;12.90;99.90;;;;;;5033222;28;20049;-73
2022/10/15 01:45:32;;;;;;;52.75;28.38;;;12.90;99.90;;;;;;5018362;28;20044;-73
2022/10/15 01:48:18;;;;;;;54.03;26.83;;;13.00;99.90;;;;;;5019526;28;20044;-75
2022/10/15 01:50:50;;;;;;;52.15;28.00;;;12.90;99.90;;;;;;5049819;28;21373;-76
2022/10/15 01:53:25;;;;;;;49.42;27.77;;;12.80;99.90;;;;;;5036486;28;20540;-73
2022/10/15 01:55:57;;;;;;;54.38;27.83;;;12.90;99.90;;;;;;5032811;28;20529;-73
2022/10/15 01:58:24;;;;;;;51.45;26.23;;;12.90;99.90;;;;;;5028851;28;20117;-72
2022/10/15 02:00:53;;;;;;;47.95;25.42;;;12.90;99.90;;;;;;5041096;28;20064;-73
2022/10/15 02:03:20;;;;;;;44.40;24.73;;;12.80;99.90;;;;;;5040167;28;20037;-73
2022/10/15 02:05:55;;;;;;;46.00;26.05;;;12.80;99.90;;;;;;5019899;28;20574;-73
2022/10/15 02:08:36;;;;;;;51.50;26.73;;;12.80;99.90;;;;;;5033340;28;20040;-73
2022/10/15 02:11:08;;;;;;;53.08;26.15;;;12.90;99.90;;;;;;5047956;28;20037;-73
2022/10/15 02:14:00;;;;;;;50.15;25.73;;;13.00;99.90;;;;;;5037954;28;20625;-73
2022/10/15 02:16:36;;;;;;;44.58;26.95;;;13.00;99.90;;;;;;5038693;28;20025;-72
2022/10/15 02:19:14;;;;;;;39.63;26.63;;;13.00;99.90;;;;;;5033244;28;20045;-73
2022/10/15 02:21:45;;;;;;;43.78;26.65;;;12.90;99.90;;;;;;5050099;28;20040;-73
2022/10/15 02:24:12;;;;;;;44.00;28.08;;;12.90;99.90;;;;;;5032878;28;20056;-73
2022/10/15 02:26:41;;;;;;;44.55;26.92;;;12.90;99.90;;;;;;5061468;22;20063;-79
2022/10/15 02:29:12;;;;;;;47.22;27.85;;;12.90;99.90;;;;;;5056513;28;20043;-79
2022/10/15 02:31:42;;;;;;;43.50;27.17;;;12.90;99.90;;;;;;5055635;28;20044;-79
2022/10/15 02:34:13;;;;;;;46.70;27.70;;;12.90;99.90;;;;;;5040060;28;20055;-79
2022/10/15 02:36:41;;;;;;;46.50;27.30;;;12.90;99.90;;;;;;5041243;28;20075;-78
2022/10/15 02:39:15;;;;;;;48.97;27.55;;;12.90;99.90;;;;;;5047526;28;20048;-79
2022/10/15 02:41:42;;;;;;;50.60;27.97;;;12.90;99.90;;;;;;5052029;28;20036;-79
2022/10/15 02:44:11;;;;;;;48.13;28.30;;;12.90;99.90;;;;;;5066830;28;21231;-78
2022/10/15 02:46:38;;;;;;;49.22;27.13;;;12.90;99.90;;;;;;5032402;28;20044;-79
2022/10/15 02:49:05;;;;;;;47.97;27.30;;;13.00;99.90;;;;;;5055481;28;20040;-79
2022/10/15 02:51:33;;;;;;;45.40;27.38;;;13.00;99.90;;;;;;5041117;28;20045;-79
2022/10/15 02:54:01;;;;;;;44.35;24.55;;;13.00;99.90;;;;;;5039554;28;20097;-79
2022/10/15 02:56:28;;;;;;;44.50;25.90;;;12.80;99.90;;;;;;5058074;28;20501;-78
2022/10/15 02:58:56;;;;;;;47.28;25.25;;;12.80;99.90;;;;;;5041260;28;20102;-78
2022/10/15 03:01:23;;;;;;;43.15;26.30;;;12.90;99.90;;;;;;5035151;28;20037;-79
2022/10/15 03:03:49;;;;;;;43.80;24.90;;;13.00;99.90;;;;;;5058573;28;20304;-78
2022/10/15 03:06:17;;;;;;;52.70;27.90;;;12.90;99.90;;;;;;5055704;28;20044;-79
2022/10/15 03:08:45;;;;;;;45.08;26.73;;;13.10;99.90;;;;;;5034950;28;20055;-79
2022/10/15 03:11:12;;;;;;;46.50;27.05;;;13.10;99.90;;;;;;5036711;28;20058;-79
2022/10/15 03:13:39;;;;;;;49.78;26.70;;;13.10;99.90;;;;;;5055986;28;20531;-79
2022/10/15 03:16:09;;;;;;;46.72;27.52;;;13.10;99.90;;;;;;5052702;28;20413;-79
2022/10/15 03:18:38;;;;;;;46.50;28.02;;;13.10;99.90;;;;;;5050428;28;20089;-79
2022/10/15 03:21:08;;;;;;;45.35;27.35;;;13.00;99.90;;;;;;5030197;28;20098;-78
2022/10/15 03:23:35;;;;;;;50.97;26.95;;;13.00;99.90;;;;;;5054815;28;20041;-79
2022/10/15 03:26:10;;;;;;;47.22;24.38;;;12.80;99.90;;;;;;5040734;28;20045;-78
2022/10/15 03:28:37;;;;;;;50.58;28.08;;;12.90;99.90;;;;;;5039140;28;20044;-78
2022/10/15 03:31:04;;;;;;;48.78;27.45;;;13.00;99.90;;;;;;5038497;28;20032;-78
2022/10/15 03:33:31;;;;;;;47.25;27.75;;;13.10;99.90;;;;;;5039885;28;20043;-79
2022/10/15 03:36:00;;;;;;;53.05;28.23;;;13.10;99.90;;;;;;5058907;28;20123;-78
2022/10/15 03:38:26;;;;;;;54.50;27.48;;;13.10;99.90;;;;;;5063029;28;20612;-78
2022/10/15 03:40:53;;;;;;;52.15;27.98;;;13.10;99.90;;;;;;5039745;28;20036;-79
2022/10/15 03:43:35;;;;;;;56.20;29.85;;;13.10;99.90;;;;;;5053690;28;20056;-79
2022/10/15 03:46:08;;;;;;;57.78;31.05;;;13.00;99.90;;;;;;5042449;28;20069;-78
2022/10/15 03:48:42;;;;;;;52.55;29.02;;;12.90;99.90;;;;;;5049216;28;20048;-78
2022/10/15 03:51:11;;;;;;;57.60;29.83;;;13.00;99.90;;;;;;5050700;28;20131;-79
2022/10/15 03:53:40;;;;;;;57.75;30.30;;;13.10;99.90;;;;;;5039578;28;20284;-78
2022/10/15 03:56:07;;;;;;;65.60;33.75;;;13.10;99.90;;;;;;5042960;28;20119;-79
2022/10/15 03:58:37;;;;;;;63.95;34.03;;;13.10;99.90;;;;;;5051226;28;20423;-79
2022/10/15 04:01:12;;;;;;;60.47;32.45;;;13.10;99.90;;;;;;5033447;28;20032;-78
2022/10/15 04:03:39;;;;;;;77.05;35.45;;;13.00;99.90;;;;;;5038318;28;20045;-79
2022/10/15 04:06:07;;;;;;;81.03;36.15;;;13.00;99.90;;;;;;5057403;28;20516;-79
2022/10/15 04:08:35;;;;;;;86.00;38.85;;;13.00;99.90;;;;;;5044234;28;20048;-79
2022/10/15 04:11:16;;;;;;;92.10;38.45;;;13.00;99.90;;;;;;5059150;28;20068;-79
2022/10/15 04:13:47;;;;;;;97.55;39.28;;;13.00;99.90;;;;;;5063063;28;20451;-79
2022/10/15 04:16:15;;;;;;;84.65;33.60;;;13.00;99.90;;;;;;5059391;28;20552;-79
2022/10/15 04:18:42;;;;;;;69.50;31.20;;;13.00;99.90;;;;;;5060992;28;20133;-79
2022/10/15 04:21:09;;;;;;;78.95;34.67;;;13.00;99.90;;;;;;5057993;28;20059;-79
2022/10/15 04:23:38;;;;;;;83.80;38.17;;;13.10;99.90;;;;;;5052639;28;20067;-80
2022/10/15 04:26:29;;;;;;;90.97;38.08;;;13.10;99.90;;;;;;5053536;28;20040;-79
2022/10/15 04:28:58;;;;;;;117.03;45.00;;;13.10;99.90;;;;;;5059672;28;20032;-79
2022/10/15 04:31:26;;;;;;;100.57;40.78;;;13.10;99.90;;;;;;5033253;28;20075;-80
2022/10/15 04:33:53;;;;;;;106.70;42.67;;;13.20;99.90;;;;;;5057443;28;20048;-79
2022/10/15 04:36:22;;;;;;;120.78;43.25;;;13.30;99.90;;;;;;5059822;28;20078;-79
2022/10/15 04:38:57;;;;;;;122.35;43.42;;;13.20;99.90;;;;;;5031974;28;20040;-79
2022/10/15 04:41:34;;;;;;;113.85;45.20;;;13.30;99.90;;;;;;5043407;28;20048;-80
2022/10/15 04:44:07;;;;;;;125.03;45.58;;;13.20;99.90;;;;;;5041950;28;20044;-80
2022/10/15 04:46:35;;;;;;;129.43;44.38;;;13.20;99.90;;;;;;5059979;28;20440;-80
2022/10/15 04:49:16;;;;;;;123.93;46.30;;;13.20;99.90;;;;;;5045918;28;20040;-80
2022/10/15 04:51:44;;;;;;;119.63;44.08;;;13.20;99.90;;;;;;5039176;28;20115;-80
2022/10/15 04:54:14;;;;;;;131.75;46.50;;;13.20;99.90;;;;;;5035585;28;20044;-79
2022/10/15 04:56:59;;;;;;;131.95;45.85;;;13.20;99.90;;;;;;5053859;28;20246;-80
2022/10/15 04:59:26;;;;;;;125.03;43.15;;;13.20;99.90;;;;;;5046992;28;20080;-80
2022/10/15 05:02:11;;;;;;;112.53;43.00;;;13.20;99.90;;;;;;5052788;28;20063;-80
2022/10/15 05:04:39;;;;;;;128.75;44.92;;;13.20;99.90;;;;;;5040725;28;20043;-80
2022/10/15 05:07:05;;;;;;;150.60;45.65;;;13.20;99.90;;;;;;5058086;28;20048;-80
2022/10/15 05:09:36;;;;;;;121.47;43.80;;;13.20;99.90;;;;;;5046978;28;20074;-79
2022/10/15 05:12:04;;;;;;;121.80;41.60;;;13.10;99.90;;;;;;5043319;28;20093;-79
2022/10/15 05:14:30;;;;;;;109.25;37.05;;;13.10;99.90;;;;;;5040257;28;20584;-80
2022/10/15 05:17:22;;;;;;;116.05;38.35;;;13.10;99.90;;;;;;5056816;28;20036;-79
2022/10/15 05:19:49;;;;;;;125.85;40.42;;;13.10;99.90;;;;;;5060268;28;20649;-80
2022/10/15 05:22:20;;;;;;;105.13;37.70;;;13.10;99.90;;;;;;5060562;28;20138;-80
2022/10/15 05:24:51;;;;;;;113.57;37.35;;;13.10;99.90;;;;;;5041494;28;20056;-80
2022/10/15 05:27:29;;;;;;;128.45;38.60;;;13.10;99.90;;;;;;5030838;28;20424;-79
2022/10/15 05:29:57;;;;;;;136.07;42.38;;;13.10;99.90;;;;;;5056337;28;20064;-79
2022/10/15 05:32:37;;;;;;;161.00;45.85;;;13.00;99.90;;;;;;5036812;28;20044;-80
2022/10/15 05:35:04;;;;;;;147.68;45.03;;;13.00;99.90;;;;;;5056226;28;20437;-79
2022/10/15 05:37:50;;;;;;;132.80;42.70;;;13.00;99.90;;;;;;5043180;28;20444;-79
2022/10/15 05:40:17;;;;;;;132.43;43.70;;;13.00;99.90;;;;;;5039694;28;20040;-79
2022/10/15 05:43:00;;;;;;;141.00;45.20;;;13.00;99.90;;;;;;5043682;28;20048;-79
2022/10/15 05:45:26;;;;;;;141.38;44.47;;;12.90;99.90;;;;;;5042225;28;20040;-79
2022/10/15 05:47:57;;;;;;;117.20;40.10;;;12.90;99.90;;;;;;5052946;28;20119;-80
2022/10/15 05:50:24;;;;;;;117.28;41.40;;;13.00;99.90;;;;;;5069102;28;20239;-79
2022/10/15 05:52:55;;;;;;;121.22;42.35;;;12.90;99.90;;;;;;5054375;28;20110;-79
2022/10/15 05:55:42;;;;;;;118.35;42.50;;;12.90;99.90;;;;;;5054487;28;20047;-79
2022/10/15 05:58:18;;;;;;;122.13;46.63;;;12.90;99.90;;;;;;5049747;28;20482;-79
2022/10/15 06:01:02;;;;;;;131.57;46.88;;;12.90;99.90;;;;;;5055187;28;20068;-79
2022/10/15 06:03:32;;;;;;;138.85;47.97;;;12.80;99.90;;;;;;5038495;28;20040;-79
2022/10/15 06:05:58;;;;;;;141.73;48.05;;;12.80;99.90;;;;;;5054722;28;20040;-79
2022/10/15 06:08:30;;;;;;;151.60;53.75;;;12.90;99.90;;;;;;5039937;28;20105;-79
2022/10/15 06:11:02;;;;;;;157.88;53.63;;;12.90;99.90;;;;;;5055409;28;20040;-79
2022/10/15 06:13:36;;;;;;;158.00;55.53;;;12.80;99.90;;;;;;5037525;28;20053;-79
2022/10/15 06:16:03;;;;;;;153.15;54.45;;;12.90;99.90;;;;;;5051862;28;20036;-79
2022/10/15 06:18:31;;;;;;;158.90;54.22;;;12.90;99.90;;;;;;5045571;28;20070;-79
2022/10/15 06:20:59;;;;;;;167.80;53.75;;;12.90;99.90;;;;;;5058199;28;20512;-78
2022/10/15 06:23:26;;;;;;;162.05;53.78;;;13.00;99.90;;;;;;5044521;28;20048;-79
2022/10/15 06:25:53;;;;;;;173.07;54.40;;;13.00;99.90;;;;;;5035494;28;20750;-79
2022/10/15 06:28:21;;;;;;;159.55;52.17;;;13.00;99.90;;;;;;5061172;28;20044;-78
2022/10/15 06:30:48;;;;;;;153.80;52.03;;;13.10;99.90;;;;;;5048466;28;20121;-78
2022/10/15 06:33:15;;;;;;;162.40;57.25;;;13.00;99.90;;;;;;5052852;28;20075;-78
2022/10/15 06:35:42;;;;;;;161.15;54.58;;;13.00;99.90;;;;;;5059663;28;20052;-79
2022/10/15 06:38:09;;;;;;;172.40;55.60;;;12.90;99.90;;;;;;5055149;28;20135;-79
2022/10/15 06:40:37;;;;;;;173.18;58.40;;;13.00;99.90;;;;;;5041289;28;20039;-79
2022/10/15 06:43:08;;;;;;;163.63;57.25;;;13.00;99.90;;;;;;5052016;28;20063;-79
2022/10/15 06:45:37;;;;;;;176.43;58.67;;;13.10;99.90;;;;;;5040731;28;20060;-79
2022/10/15 06:48:09;;;;;;;175.18;59.40;;;13.10;99.90;;;;;;5051010;28;20151;-79
2022/10/15 06:50:37;;;;;;;179.75;58.17;;;13.20;99.90;;;;;;5073693;28;20100;-79
2022/10/15 06:53:05;;;;;;;167.68;58.55;;;13.20;99.90;;;;;;5049655;28;20036;-79
2022/10/15 06:55:32;;;;;;;172.15;59.72;;;13.30;99.90;;;;;;5042277;28;20044;-79
2022/10/15 06:57:59;;;;;;;173.38;62.08;;;13.30;99.90;;;;;;5040226;28;20087;-79
2022/10/15 07:00:28;;;;;;;154.13;59.60;;;13.30;99.90;;;;;;5042467;28;20115;-79
2022/10/15 07:02:55;;;;;;;166.55;60.58;;;13.30;99.90;;;;;;5063986;28;20051;-79
2022/10/15 07:05:21;;;;;;;168.45;58.67;;;13.30;99.90;;;;;;5057259;28;20025;-79
2022/10/15 07:07:52;;;;;;;174.32;60.45;;;13.30;99.90;;;;;;5057071;28;20040;-78
2022/10/15 07:10:24;;;;;;;176.43;60.85;;;13.20;99.90;;;;;;5041457;28;20040;-79
2022/10/15 07:12:53;;;;;;;158.82;59.28;;;13.20;99.90;;;;;;5054840;28;20055;-78
2022/10/15 07:15:21;;;;;;;160.05;59.80;;;13.30;99.90;;;;;;5064759;28;20256;-79
2022/10/15 07:17:49;;;;;;;143.32;56.75;;;13.30;99.90;;;;;;5038471;28;20048;-78
2022/10/15 07:20:16;;;;;;;139.35;56.17;;;13.30;99.90;;;;;;5067136;28;20025;-79
2022/10/15 07:22:49;;;;;;;144.00;56.35;;;13.40;99.90;;;;;;5058317;28;20044;-78
2022/10/15 07:25:17;;;;;;;135.85;55.92;;;13.30;99.90;;;;;;5052357;28;20101;-79
2022/10/15 07:27:44;;;;;;;148.80;58.35;;;13.40;99.90;;;;;;5052562;28;20044;-78
2022/10/15 07:30:10;;;;;;;144.43;57.70;;;13.40;99.90;;;;;;5037519;28;20041;-78
2022/10/15 07:32:37;;;;;;;128.80;56.78;;;13.40;99.90;;;;;;5050350;28;20438;-79
2022/10/15 07:35:07;;;;;;;122.50;53.92;;;13.50;99.90;;;;;;5054949;28;20645;-78
2022/10/15 07:37:34;;;;;;;114.43;51.25;;;13.50;99.90;;;;;;5065041;28;20413;-79
2022/10/15 07:40:01;;;;;;;103.15;48.00;;;13.50;99.90;;;;;;5058629;28;20040;-79
2022/10/15 07:42:27;;;;;;;110.57;48.75;;;13.50;99.90;;;;;;5061150;28;20085;-79
2022/10/15 07:44:57;;;;;;;117.55;49.65;;;13.60;99.90;;;;;;5040749;28;20483;-79
2022/10/15 07:47:23;;;;;;;98.45;46.72;;;13.70;99.90;;;;;;5040497;28;20230;-78
2022/10/15 07:49:51;;;;;;;95.18;43.92;;;13.80;99.90;;;;;;5061922;28;20040;-79
2022/10/15 07:52:17;;;;;;;98.97;47.05;;;13.70;99.90;;;;;;5058126;28;20195;-79
2022/10/15 07:54:44;;;;;;;90.63;44.63;;;13.70;99.90;;;;;;5047216;28;20036;-79
2022/10/15 07:57:16;;;;;;;94.78;44.63;;;13.70;99.90;;;;;;5057973;28;20052;-79
2022/10/15 07:59:42;;;;;;;83.25;40.92;;;13.80;99.90;;;;;;5059900;28;20327;-79
2022/10/15 08:02:15;;;;;;;82.05;40.67;;;13.80;99.90;;;;;;5036812;28;20051;-79
2022/10/15 08:04:42;;;;;;;86.57;43.45;;;13.80;99.90;;;;;;5057399;28;20565;-79
2022/10/15 08:07:09;;;;;;;73.28;39.17;;;13.90;99.90;;;;;;5059915;28;20037;-79
2022/10/15 08:09:36;;;;;;;70.63;39.30;;;14.00;99.90;;;;;;5053626;28;20047;-79
2022/10/15 08:12:05;;;;;;;70.13;38.85;;;14.10;99.90;;;;;;5052088;28;20097;-79
2022/10/15 08:14:33;;;;;;;53.53;33.33;;;14.20;99.90;;;;;;5046066;28;20041;-79
2022/10/15 08:17:01;;;;;;;55.13;34.67;;;14.20;99.90;;;;;;5044678;28;20040;-79
2022/10/15 08:19:28;;;;;;;57.80;33.95;;;14.30;99.90;;;;;;5035552;28;20125;-80
2022/10/15 08:21:56;;;;;;;49.75;31.55;;;14.40;99.90;;;;;;5044007;28;20041;-80
2022/10/15 08:24:23;;;;;;;44.58;28.88;;;14.50;99.90;;;;;;5059606;28;20048;-79
2022/10/15 08:26:50;;;;;;;37.45;27.50;;;14.50;99.90;;;;;;5057480;28;20121;-79
2022/10/15 08:29:17;;;;;;;35.80;26.52;;;14.70;99.90;;;;;;5060134;28;20055;-80
2022/10/15 08:31:44;;;;;;;35.15;27.75;;;14.90;99.90;;;;;;5055238;28;20048;-81
2022/10/15 08:34:10;;;;;;;36.58;29.80;;;15.00;99.90;;;;;;5054107;28;20048;-78
2022/10/15 08:36:37;;;;;;;32.65;29.10;;;15.20;99.90;;;;;;5062313;28;20072;-78
2022/10/15 08:39:06;;;;;;;32.45;28.92;;;15.50;99.90;;;;;;5056521;28;20048;-79
2022/10/15 08:42:04;;;;;;;31.02;27.92;;;15.80;99.90;;;;;;5079424;28;20056;-80
2022/10/15 08:44:44;;;;;;;32.83;29.70;;;15.90;99.90;;;;;;5060191;28;20071;-78
2022/10/15 08:47:37;;;;;;;31.77;28.70;;;15.90;99.90;;;;;;5052374;28;20043;-80
2022/10/15 08:50:19;;;;;;;31.67;28.83;;;16.10;99.90;;;;;;5070895;28;20072;-79
2022/10/15 08:52:48;;;;;;;34.20;30.90;;;16.30;99.90;;;;;;5064012;28;20049;-80
2022/10/15 08:55:18;;;;;;;30.98;28.25;;;16.10;99.90;;;;;;5059571;28;20048;-79
2022/10/15 08:58:00;;;;;;;30.58;27.45;;;16.00;99.90;;;;;;5057302;28;20104;-79
2022/10/15 09:00:31;;;;;;;29.30;26.58;;;16.00;99.90;;;;;;5069483;28;20041;-81
2022/10/15 09:03:24;;;;;;;30.58;27.92;;;16.20;99.90;;;;;;5068133;28;20061;-80
2022/10/15 09:06:13;;;;;;;32.72;29.83;;;16.00;99.90;;;;;;5057413;28;20060;-81
2022/10/15 09:09:11;;;;;;;32.35;29.38;;;15.90;99.90;;;;;;5073116;28;20057;-79
2022/10/15 09:12:03;;;;;;;32.40;29.38;;;16.10;99.90;;;;;;5063565;28;20048;-79
2022/10/15 09:14:34;;;;;;;32.63;29.85;;;16.20;99.90;;;;;;5052634;28;20127;-79
2022/10/15 09:17:06;;;;;;;31.60;28.95;;;16.10;99.90;;;;;;5057634;28;20533;-79
2022/10/15 09:19:36;;;;;;;29.73;27.45;;;16.20;99.90;;;;;;5073717;28;20052;-79
2022/10/15 09:22:12;;;;;;;33.13;30.40;;;16.40;99.90;;;;;;5055834;28;20114;-80
2022/10/15 09:24:39;;;;;;;32.80;30.02;;;16.60;99.90;;;;;;5056753;28;20055;-80
2022/10/15 09:27:19;;;;;;;33.00;30.30;;;16.80;99.90;;;;;;5058274;28;20040;-79
2022/10/15 09:29:51;;;;;;;30.95;28.35;;;16.80;99.90;;;;;;5040970;28;20056;-81
2022/10/15 09:32:38;;;;;;;31.67;28.88;;;16.80;99.90;;;;;;5043745;28;20052;-79
2022/10/15 09:35:23;;;;;;;32.20;29.35;;;16.80;99.90;;;;;;5051906;28;20044;-81
2022/10/15 09:38:00;;;;;;;30.38;27.83;;;16.70;99.90;;;;;;5050642;28;20052;-79
2022/10/15 09:41:00;;;;;;;30.17;27.70;;;16.70;99.90;;;;;;5050526;28;20122;-80
2022/10/15 09:43:35;;;;;;;28.80;26.27;;;17.00;99.90;;;;;;5035247;28;20035;-81
2022/10/15 09:46:03;;;;;;;29.17;26.67;;;17.10;99.90;;;;;;5056789;28;20040;-80
2022/10/15 09:48:52;;;;;;;29.80;27.50;;;17.20;99.90;;;;;;5027085;28;20268;-80
2022/10/15 09:51:28;;;;;;;29.20;26.90;;;17.30;99.90;;;;;;5061562;28;20052;-80
2022/10/15 09:54:16;;;;;;;27.27;25.13;;;17.30;99.90;;;;;;5056441;28;20048;-79
2022/10/15 09:56:47;;;;;;;27.58;25.45;;;17.30;99.90;;;;;;5041116;28;20047;-80
2022/10/15 09:59:19;;;;;;;26.10;24.10;;;17.30;99.90;;;;;;5050063;28;20278;-81
2022/10/15 10:02:03;;;;;;;27.00;24.90;;;17.50;99.90;;;;;;5058761;28;20120;-79
2022/10/15 10:04:32;;;;;;;24.98;23.10;;;17.50;99.90;;;;;;5041706;28;20040;-79
2022/10/15 10:07:06;;;;;;;26.00;24.33;;;17.90;99.90;;;;;;5037133;28;20058;-80
2022/10/15 10:09:48;;;;;;;26.40;24.50;;;18.00;99.90;;;;;;5029588;28;20466;-79
2022/10/15 10:12:23;;;;;;;23.85;22.25;;;18.30;99.90;;;;;;5035432;28;20047;-80
2022/10/15 10:15:07;;;;;;;24.92;23.33;;;18.40;99.90;;;;;;5044499;28;20049;-79
2022/10/15 10:17:34;;;;;;;29.02;27.23;;;18.40;99.90;;;;;;5030588;28;20047;-80
2022/10/15 10:20:05;;;;;;;29.23;27.02;;;18.20;99.90;;;;;;5046091;28;20295;-79
2022/10/15 10:22:44;;;;;;;26.92;25.33;;;18.00;99.90;;;;;;5050198;28;20133;-79
2022/10/15 10:25:25;;;;;;;26.10;24.40;;;17.60;99.90;;;;;;5057431;28;20040;-79
2022/10/15 10:27:54;;;;;;;28.55;26.75;;;17.30;99.90;;;;;;5043080;28;20075;-79
2022/10/15 10:30:22;;;;;;;26.42;24.60;;;17.30;99.90;;;;;;5053802;28;20086;-79
2022/10/15 10:32:57;;;;;;;28.38;26.58;;;17.30;99.90;;;;;;5052787;28;20048;-78
2022/10/15 10:35:28;;;;;;;26.70;25.10;;;17.30;99.90;;;;;;5063227;28;20052;-78
2022/10/15 10:37:54;;;;;;;27.60;25.60;;;17.30;99.90;;;;;;5083494;28;20042;-79
2022/10/15 10:40:31;;;;;;;26.08;24.48;;;17.30;99.90;;;;;;5062116;28;20233;-79
2022/10/15 10:43:16;;;;;;;24.50;22.95;;;17.60;99.90;;;;;;5061872;28;20059;-79
2022/10/15 10:45:56;;;;;;;26.00;23.98;;;17.90;99.90;;;;;;5056274;28;20051;-78
2022/10/15 10:48:27;;;;;;;23.00;21.42;;;18.30;99.90;;;;;;5061821;28;20513;-78
2022/10/15 10:51:12;;;;;;;24.48;22.83;;;18.60;99.90;;;;;;5055743;28;20040;-78
2022/10/15 10:54:01;;;;;;;25.63;24.15;;;18.40;99.90;;;;;;5067478;28;20293;-79
2022/10/15 10:56:36;;;;;;;25.48;23.92;;;18.20;99.90;;;;;;5038535;28;20546;-78
2022/10/15 10:59:16;;;;;;;25.25;23.80;;;18.20;99.90;;;;;;5044941;28;20044;-78
2022/10/15 11:01:46;;;;;;;24.42;22.92;;;18.30;99.90;;;;;;5056007;28;20051;-78
2022/10/15 11:04:21;;;;;;;25.80;24.10;;;18.20;99.90;;;;;;5031727;28;20044;-78
2022/10/15 11:07:02;;;;;;;25.35;23.65;;;18.10;99.90;;;;;;5041224;28;20060;-79
2022/10/15 11:09:54;;;;;;;26.08;24.38;;;18.00;99.90;;;;;;5040674;28;20548;-78
2022/10/15 11:12:44;;;;;;;24.30;22.88;;;17.90;99.90;;;;;;5055775;28;20910;-78
2022/10/15 11:15:39;;;;;;;23.85;22.55;;;17.80;99.90;;;;;;5057446;28;20684;-78
2022/10/15 11:18:21;;;;;;;24.15;22.75;;;18.00;99.90;;;;;;5066674;28;20047;-78
2022/10/15 11:21:21;;;;;;;22.90;21.50;;;18.00;99.90;;;;;;5069768;28;20044;-78
2022/10/15 11:23:52;;;;;;;21.95;20.75;;;18.10;99.90;;;;;;5042769;28;20067;-78
2022/10/15 11:26:51;;;;;;;22.80;21.52;;;18.20;99.90;;;;;;5060434;28;20043;-78
2022/10/15 11:29:53;;;;;;;24.00;22.42;;;18.00;99.90;;;;;;5038386;28;20135;-78
2022/10/15 11:32:38;;;;;;;23.90;22.60;;;17.90;99.90;;;;;;5049531;28;20107;-79
2022/10/15 11:35:45;;;;;;;24.70;23.17;;;17.80;99.90;;;;;;5045748;28;22205;-79
2022/10/15 11:39:10;;;;;;;23.88;22.08;;;17.80;99.90;;;;;;5068567;28;20220;-78
2022/10/15 11:42:01;;;;;;;22.77;21.48;;;17.80;99.90;;;;;;5044905;28;20040;-78
2022/10/15 11:44:46;;;;;;;24.42;22.92;;;17.80;99.90;;;;;;5055493;28;20350;-79
2022/10/15 11:47:59;;;;;;;24.50;23.00;;;17.90;99.90;;;;;;5051877;28;20505;-78
2022/10/15 11:50:48;;;;;;;24.55;22.95;;;17.90;99.90;;;;;;5064459;28;20041;-78
2022/10/15 11:53:17;;;;;;;23.80;22.30;;;17.70;99.90;;;;;;5038952;28;20581;-78
2022/10/15 11:55:47;;;;;;;22.70;21.30;;;17.60;99.90;;;;;;5063702;28;20085;-78
2022/10/15 11:58:38;;;;;;;25.75;24.05;;;17.60;99.90;;;;;;5051466;28;20052;-80
2022/10/15 12:01:11;;;;;;;24.02;22.58;;;17.80;99.90;;;;;;5048169;28;20124;-78
2022/10/15 12:03:55;;;;;;;24.00;22.60;;;17.80;99.90;;;;;;5055559;28;20376;-79
2022/10/15 12:06:26;;;;;;;22.25;20.98;;;17.70;99.90;;;;;;5036490;28;20044;-79
2022/10/15 12:08:55;;;;;;;22.95;21.52;;;17.50;99.90;;;;;;5060123;22;20063;-72
2022/10/15 12:11:31;;;;;;;21.75;20.55;;;17.40;99.90;;;;;;5071746;28;20808;-69
2022/10/15 12:14:16;;;;;;;20.73;19.30;;;17.30;99.90;;;;;;5071432;28;20047;-72
2022/10/15 12:16:55;;;;;;;21.38;20.20;;;17.30;99.90;;;;;;5070784;28;20077;-70
2022/10/15 12:19:34;;;;;;;20.30;19.20;;;17.30;99.90;;;;;;5054967;28;20517;-70
2022/10/15 12:22:09;;;;;;;21.08;19.98;;;17.20;99.90;;;;;;5052632;28;20045;-70
2022/10/15 12:24:38;;;;;;;21.67;20.27;;;17.30;99.90;;;;;;5022299;28;20045;-70
2022/10/15 12:27:28;;;;;;;19.67;18.67;;;17.40;99.90;;;;;;5051361;28;20738;-70
2022/10/15 12:30:01;;;;;;;19.50;18.52;;;17.50;99.90;;;;;;5030087;28;20402;-69
2022/10/15 12:32:46;;;;;;;20.50;19.50;;;17.60;99.90;;;;;;5033217;28;20542;-72
2022/10/15 12:35:20;;;;;;;19.48;18.40;;;17.60;99.90;;;;;;5025375;28;20091;-71
2022/10/15 12:37:52;;;;;;;19.17;18.17;;;17.50;99.90;;;;;;5053492;28;20048;-71
2022/10/15 12:40:30;;;;;;;18.10;17.30;;;17.50;99.90;;;;;;5032439;28;20735;-71
2022/10/15 12:43:10;;;;;;;16.95;16.25;;;17.30;99.90;;;;;;5053522;28;20058;-71
2022/10/15 12:45:47;;;;;;;18.75;17.75;;;17.30;99.90;;;;;;5027452;28;20049;-71
2022/10/15 12:48:14;;;;;;;17.48;16.58;;;17.10;99.90;;;;;;5049149;28;20225;-72
2022/10/15 12:50:42;;;;;;;17.35;16.55;;;17.00;99.90;;;;;;5054742;28;20238;-72
2022/10/15 12:53:41;;;;;;;17.45;16.35;;;17.00;99.90;;;;;;5049981;28;20702;-71
2022/10/15 12:56:10;;;;;;;16.60;15.90;;;16.90;99.90;;;;;;5030476;28;20078;-72